Latest Weather Observations for Delta

IDN60801

Issued at 4:03 pm EDT Thursday 23 November 2017 (issued every 30 minutes, with the page automatically refreshed every 10 minutes)

About weather observations | Map of weather stations | Latest weather observations for NSW | Other Formats
Station Details ID: 048247 Name: DELTA AWS Lat: -30.10 Lon: 145.33 Height: 109.0 m
Data from the previous 72 hours. | See also: Recent months at Delta
Date/Time
EDT
Temp
°C
App
Temp
°C
Dew
Point
°C
Rel
Hum
%
Delta-T
°C
Wind Press
QNH
hPa
Press
MSL
hPa
Rain since
9am
mm
Dir  Spd
km/h
Gust
km/h
Spd
kts
Gust
kts
23/04:00pm 31.7 - 3.7 17 14.5 - - - - - - - 0.0
23/03:30pm 32.3 - 3.3 16 14.9 - - - - - - - 0.0
23/03:00pm 32.1 - 3.1 16 14.9 - - - - - - - 0.0
23/02:30pm 31.5 - 3.5 17 14.4 - - - - - - - 0.0
23/02:00pm 32.6 - 4.4 17 14.8 - - - - - - - 0.0
23/01:30pm 31.9 - 4.6 18 14.3 - - - - - - - 0.0
23/01:00pm 31.0 - 3.9 18 14.0 - - - - - - - 0.0
23/12:30pm 31.1 - 4.0 18 14.0 - - - - - - - 0.0
23/12:00pm 31.4 - 5.0 19 13.9 - - - - - - - 0.0
23/11:30am 30.3 - 4.1 19 13.5 - - - - - - - 0.0
23/11:00am 30.2 - 5.5 21 13.0 - - - - - - - 0.0
23/10:30am 29.4 - 7.3 25 12.0 - - - - - - - 0.0
23/10:00am 28.8 - 7.9 27 11.4 - - - - - - - 0.0
23/09:30am 27.9 - 8.2 29 10.7 - - - - - - - 0.0
23/09:00am 26.9 - 8.4 31 10.1 - - - - - - - 0.0
23/08:30am 25.9 - 8.4 33 9.5 - - - - - - - 0.0
23/08:00am 24.6 - 8.1 35 8.8 - - - - - - - 0.0
23/07:30am 22.7 - 7.3 37 8.0 - - - - - - - 0.0
23/07:00am 19.1 - 7.5 47 5.9 - - - - - - - 0.0
23/06:30am 16.0 - 6.4 53 4.7 - - - - - - - 0.0
23/06:00am 16.4 - 6.2 51 5.0 - - - - - - - 0.0
23/05:30am 17.1 - 7.2 52 5.0 - - - - - - - 0.0
23/05:00am 16.7 - 6.8 52 4.9 - - - - - - - 0.0
23/04:30am 16.6 - 5.9 49 5.2 - - - - - - - 0.0
23/04:00am 17.0 - 5.3 46 5.6 - - - - - - - 0.0
23/03:30am 17.7 - 5.9 46 5.8 - - - - - - - 0.0
23/03:00am 18.3 - 5.8 44 6.2 - - - - - - - 0.0
23/02:30am 19.2 - 7.0 45 6.2 - - - - - - - 0.0
23/02:00am 19.7 - 6.1 41 6.8 - - - - - - - 0.0
23/01:30am 20.8 - 6.4 39 7.3 - - - - - - - 0.0
23/01:00am 23.0 - 7.5 37 8.1 - - - - - - - 0.0
23/12:30am 23.4 - 7.5 36 8.4 - - - - - - - 0.0
23/12:00am 24.0 - 7.6 35 8.7 - - - - - - - 0.0
 
Date/Time
EDT
Temp
°C
App
Temp
°C
Dew
Point
°C
Rel
Hum
%
Delta-T
°C
Wind Press
QNH
hPa
Press
MSL
hPa
Rain since
9am
mm
Dir  Spd
km/h
Gust
km/h
Spd
kts
Gust
kts
22/11:30pm 24.3 - 7.4 34 8.9 - - - - - - - 0.0
22/11:00pm 24.9 - 7.1 32 9.4 - - - - - - - 0.0
22/10:30pm 25.4 - 6.1 29 10.0 - - - - - - - 0.0
22/10:00pm 26.8 - 6.8 28 10.6 - - - - - - - 0.0
22/09:30pm 25.3 - 4.4 26 10.5 - - - - - - - 0.0
22/09:00pm 26.6 - 4.4 24 11.2 - - - - - - - 0.0
22/08:30pm 27.9 - 4.2 22 12.1 - - - - - - - 0.0
22/08:00pm 29.2 - 4.6 21 12.7 - - - - - - - 0.0
22/07:30pm 30.1 - 5.4 21 13.0 - - - - - - - 0.0
22/07:00pm 30.8 - 5.3 20 13.5 - - - - - - - 0.0
22/06:30pm 31.0 - 5.4 20 13.5 - - - - - - - 0.0
22/06:00pm 31.4 - 5.8 20 13.7 - - - - - - - 0.0
22/05:30pm 31.8 - 5.3 19 14.1 - - - - - - - 0.0
22/05:00pm 30.9 - 5.3 20 13.5 - - - - - - - 0.0
22/04:30pm 31.1 - 6.2 21 13.4 - - - - - - - 0.0
22/04:00pm 30.4 - 4.9 20 13.3 - - - - - - - 0.0
22/03:30pm 31.3 - 5.7 20 13.6 - - - - - - - 0.0
22/03:00pm 31.8 - 3.8 17 14.5 - - - - - - - 0.0
22/02:30pm 31.0 - 5.4 20 13.5 - - - - - - - 0.0
22/02:00pm 30.4 - 6.3 22 12.9 - - - - - - - 0.0
22/01:30pm 30.0 - 6.0 22 12.8 - - - - - - - 0.0
22/01:00pm 30.1 - 6.7 23 12.6 - - - - - - - 0.0
22/12:30pm 29.7 - 7.0 24 12.2 - - - - - - - 0.0
22/12:00pm 29.6 - 7.5 25 12.0 - - - - - - - 0.0
22/11:30am 28.7 - 7.9 27 11.3 - - - - - - - 0.0
22/11:00am 28.3 - 8.1 28 11.0 - - - - - - - 0.0
22/10:30am 27.9 - 8.7 30 10.6 - - - - - - - 0.0
22/10:00am 27.4 - 9.3 32 10.0 - - - - - - - 0.0
22/09:30am 26.0 - 8.9 34 9.3 - - - - - - - 0.0
22/09:00am 25.0 - 8.5 35 8.9 - - - - - - - 0.0
22/08:30am 24.1 - 7.7 35 8.7 - - - - - - - 0.0
22/08:00am 22.4 - 6.6 36 8.1 - - - - - - - 0.0
22/07:30am 21.4 - 6.5 38 7.6 - - - - - - - 0.0
22/07:00am 19.5 - 6.3 42 6.6 - - - - - - - 0.0
22/06:30am 17.0 - 5.9 48 5.4 - - - - - - - 0.0
22/06:00am 14.6 - 2.8 45 5.3 - - - - - - - 0.0
22/05:30am 15.2 - 3.4 45 5.4 - - - - - - - 0.0
22/05:00am 16.0 - 3.8 44 5.7 - - - - - - - 0.0
22/04:30am 15.8 - 3.9 45 5.5 - - - - - - - 0.0
22/04:00am 16.0 - 3.4 43 5.8 - - - - - - - 0.0
22/03:30am 16.6 - 3.7 42 6.0 - - - - - - - 0.0
22/03:00am 17.1 - 3.8 41 6.2 - - - - - - - 0.0
22/02:30am 18.4 - 4.2 39 6.8 - - - - - - - 0.0
22/02:00am 20.4 - 5.2 37 7.5 - - - - - - - 0.0
22/01:30am 20.4 - 4.8 36 7.6 - - - - - - - 0.0
22/01:00am 20.7 - 4.7 35 7.8 - - - - - - - 0.0
22/12:30am 21.3 - 4.4 33 8.3 - - - - - - - 0.0
22/12:00am 22.5 - 5.0 32 8.7 - - - - - - - 0.0
 
Date/Time
EDT
Temp
°C
App
Temp
°C
Dew
Point
°C
Rel
Hum
%
Delta-T
°C
Wind Press
QNH
hPa
Press
MSL
hPa
Rain since
9am
mm
Dir  Spd
km/h
Gust
km/h
Spd
kts
Gust
kts
21/11:30pm 23.5 - 4.9 30 9.3 - - - - - - - 0.0
21/11:00pm 24.2 - 5.1 29 9.7 - - - - - - - 0.0
21/10:30pm 24.5 - 4.8 28 9.9 - - - - - - - 0.0
21/10:00pm 25.3 - 4.4 26 10.5 - - - - - - - 0.0
21/09:30pm 26.2 - 4.6 25 11.0 - - - - - - - 0.0
21/09:00pm 27.1 - 4.2 23 11.6 - - - - - - - 0.0
21/08:30pm 28.0 - 4.3 22 12.1 - - - - - - - 0.0
21/08:00pm 28.8 - 5.0 22 12.4 - - - - - - - 0.0
21/07:30pm 29.4 - 4.8 21 12.8 - - - - - - - 0.0
21/07:00pm 29.9 - 5.2 21 12.9 - - - - - - - 0.0
21/06:30pm 29.9 - 5.9 22 12.7 - - - - - - - 0.0
21/06:00pm 30.4 - 5.6 21 13.1 - - - - - - - 0.0
21/05:30pm 30.7 - 5.2 20 13.4 - - - - - - - 0.0
21/05:00pm 31.2 - 5.6 20 13.6 - - - - - - - 0.0
21/04:30pm 31.0 - 6.1 21 13.3 - - - - - - - 0.0
21/04:00pm 31.3 - 6.4 21 13.4 - - - - - - - 0.0
21/03:30pm 30.6 - 7.1 23 12.8 - - - - - - - 0.0
21/03:00pm 30.6 - 6.5 22 13.0 - - - - - - - 0.0
21/02:30pm 30.1 - 8.5 26 12.0 - - - - - - - 0.0
21/02:00pm 29.3 - 8.9 28 11.3 - - - - - - - 0.0
21/01:30pm 29.0 - 9.7 30 10.9 - - - - - - - 0.0
21/01:00pm 29.3 - 10.9 32 10.6 - - - - - - - 0.0
21/12:30pm 28.6 - 11.2 34 10.0 - - - - - - - 0.0
21/12:00pm 28.4 - 11.5 35 9.8 - - - - - - - 0.0
21/11:30am 28.3 - 11.4 35 9.7 - - - - - - - 0.0
21/11:00am 27.6 - 12.4 39 8.9 - - - - - - - 0.0
21/10:30am 26.1 - 12.5 42 7.9 - - - - - - - 0.0
21/10:00am 25.7 - 12.5 44 7.7 - - - - - - - 0.0
21/09:30am 24.6 - 12.2 46 7.1 - - - - - - - 0.0
21/09:00am 23.7 - 12.0 48 6.7 - - - - - - - 0.0
21/08:30am 22.9 - 11.9 50 6.2 - - - - - - - 0.0
21/08:00am 22.3 - 12.0 52 5.8 - - - - - - - 0.0
21/07:30am 21.7 - 11.1 51 5.9 - - - - - - - 0.0
21/07:00am 21.1 - 10.0 49 6.0 - - - - - - - 0.0
21/06:30am 20.4 - 9.0 48 6.0 - - - - - - - 0.0
21/06:00am 19.9 - 7.9 46 6.2 - - - - - - - 0.0
21/05:30am 20.2 - 8.2 46 6.3 - - - - - - - 0.0
21/05:00am 18.6 - 7.1 47 5.8 - - - - - - - 0.0
21/04:30am 18.3 - 7.1 48 5.7 - - - - - - - 0.0
21/04:00am 18.4 - 6.9 47 5.8 - - - - - - - 0.0
21/03:30am 19.0 - 7.1 46 6.0 - - - - - - - 0.0
21/03:00am 19.5 - 6.6 43 6.5 - - - - - - - 0.0
21/02:30am 18.9 - 5.4 41 6.6 - - - - - - - 0.0
21/02:00am 19.2 - 5.3 40 6.8 - - - - - - - 0.0
21/01:30am 19.5 - 6.3 42 6.6 - - - - - - - 0.0
21/01:00am 20.4 - 6.4 40 7.1 - - - - - - - 0.0
21/12:30am 21.2 - 5.9 37 7.7 - - - - - - - 0.0
21/12:00am 21.5 - 5.4 35 8.0 - - - - - - - 0.0
 
Date/Time
EDT
Temp
°C
App
Temp
°C
Dew
Point
°C
Rel
Hum
%
Delta-T
°C
Wind Press
QNH
hPa
Press
MSL
hPa
Rain since
9am
mm
Dir  Spd
km/h
Gust
km/h
Spd
kts
Gust
kts
20/11:30pm 22.5 - 5.9 34 8.4 - - - - - - - 0.0
20/11:00pm 23.4 - 5.8 32 9.0 - - - - - - - 0.0
20/10:30pm 24.6 - 5.9 30 9.6 - - - - - - - 0.0
20/10:00pm 25.5 - 6.2 29 10.0 - - - - - - - 0.0
20/09:30pm 26.3 - 5.8 27 10.6 - - - - - - - 0.0
20/09:00pm 27.1 - 6.0 26 11.0 - - - - - - - 0.0
20/08:30pm 27.7 - 5.9 25 11.4 - - - - - - - 0.0
20/08:00pm 28.4 - 6.5 25 11.6 - - - - - - - 0.0
20/07:30pm 29.0 - 6.4 24 12.0 - - - - - - - 0.0
20/07:00pm 29.3 - 6.0 23 12.3 - - - - - - - 0.0
20/06:30pm 29.5 - 6.8 24 12.2 - - - - - - - 0.0
20/06:00pm 30.6 - 7.1 23 12.8 - - - - - - - 0.0
20/05:30pm 30.0 - 7.2 24 12.4 - - - - - - - 0.0
20/05:00pm 30.7 - 7.8 24 12.6 - - - - - - - 0.0
20/04:30pm 30.8 - 7.3 23 12.8 - - - - - - - 0.0

Other Formats:

Comma delimited format used in spreadsheet applications
http://www.bom.gov.au/fwo/IDN60801/IDN60801.95681.axf

JavaScript Object Notation format (JSON) in row-major order
http://www.bom.gov.au/fwo/IDN60801/IDN60801.95681.json